Terminal Aerodrome Forecast
Issued by NWS

Home | Current Version | Previous Version | Text Only | Print | Product List | Glossary On
Versions: 1 2 3 4 5 6 7 8 9 10 11 12
000
FTUS43 KGRB 202335
TAFMTW
TAF
KMTW 202335Z 2100/2124 VRB03KT P6SM SCT110 BKN200
      TEMPO 2100/2101 BKN110
     FM211300 31008G15KT P6SM SCT040
     FM211500 35013G20KT P6SM BKN045
     FM212300 01010KT P6SM BKN040=

USA.gov is the U.S. government's official web portal to all federal, state and local government web resources and services.